Time;durP1;ratioP1;P1;durP2;ratioP2;P2;SDS_P1;SDS_P2;PMS_P1;PMS_P2;Temp;Humidity;BMP_temperature;BMP_pressure;BME280_temperature;BME280_humidity;BME280_pressure;Samples;Min_cycle;Max_cycle;Signal;HPM_P1;HPM_P2
2021/06/05 00:00:11;;;;;;;3.83;1.67;;;;;;;;;;4956339;28;20235;-76
2021/06/05 00:02:37;;;;;;;3.07;1.83;;;;;;;;;;4956319;28;20290;-76
2021/06/05 00:05:06;;;;;;;2.30;1.53;;;;;;;;;;4975958;28;20586;-76
2021/06/05 00:07:34;;;;;;;3.70;1.67;;;;;;;;;;4975353;28;20198;-76
2021/06/05 00:10:01;;;;;;;5.17;1.50;;;;;;;;;;4975489;28;20207;-76
2021/06/05 00:12:29;;;;;;;3.50;1.70;;;;;;;;;;4975767;28;20234;-76
2021/06/05 00:14:56;;;;;;;2.07;1.80;;;;;;;;;;4967801;28;20666;-76
2021/06/05 00:17:24;;;;;;;1.97;1.53;;;;;;;;;;4971646;28;20312;-76
2021/06/05 00:19:51;;;;;;;6.40;1.90;;;;;;;;;;4975399;28;20294;-76
2021/06/05 00:22:18;;;;;;;2.50;1.60;;;;;;;;;;4975356;28;20230;-76
2021/06/05 00:24:46;;;;;;;5.03;2.17;;;;;;;;;;4975396;28;20256;-76
2021/06/05 00:27:13;;;;;;;2.70;1.57;;;;;;;;;;4970329;28;20289;-76
2021/06/05 00:29:40;;;;;;;2.77;1.93;;;;;;;;;;4958892;28;20237;-76
2021/06/05 00:32:07;;;;;;;3.73;1.73;;;;;;;;;;4975442;28;20252;-76
2021/06/05 00:34:34;;;;;;;4.90;1.80;;;;;;;;;;4975307;28;20688;-76
2021/06/05 00:37:00;;;;;;;5.23;1.70;;;;;;;;;;4975146;28;20268;-76
2021/06/05 00:39:28;;;;;;;3.13;1.63;;;;;;;;;;4975060;28;20258;-76
2021/06/05 00:41:56;;;;;;;2.77;1.50;;;;;;;;;;4975201;28;20234;-77
2021/06/05 00:44:22;;;;;;;2.30;1.50;;;;;;;;;;4973775;28;20289;-76
2021/06/05 00:46:49;;;;;;;2.93;1.70;;;;;;;;;;4974683;28;20301;-76
2021/06/05 00:49:16;;;;;;;2.53;1.70;;;;;;;;;;4973983;28;20236;-76
2021/06/05 00:51:44;;;;;;;2.93;1.80;;;;;;;;;;4973594;28;20217;-76
2021/06/05 00:54:12;;;;;;;1.93;1.47;;;;;;;;;;4974613;28;20293;-76
2021/06/05 00:56:40;;;;;;;1.80;1.50;;;;;;;;;;4974232;28;20253;-76
2021/06/05 00:59:08;;;;;;;3.83;1.53;;;;;;;;;;4974421;28;20289;-77
2021/06/05 01:01:35;;;;;;;2.80;1.67;;;;;;;;;;4971496;28;20209;-77
2021/06/05 01:04:02;;;;;;;2.80;1.83;;;;;;;;;;4974737;28;20252;-76
2021/06/05 01:06:30;;;;;;;4.60;1.80;;;;;;;;;;4975149;28;20246;-76
2021/06/05 01:09:00;;;;;;;3.83;2.10;;;;;;;;;;4973566;28;20290;-77
2021/06/05 01:11:29;;;;;;;2.40;1.90;;;;;;;;;;4971301;28;20202;-76
2021/06/05 01:13:59;;;;;;;4.40;1.80;;;;;;;;;;4955544;29;20258;-76
2021/06/05 01:16:28;;;;;;;2.40;1.73;;;;;;;;;;4955336;29;20298;-76
2021/06/05 01:18:57;;;;;;;5.60;2.20;;;;;;;;;;4955345;28;20970;-76
2021/06/05 01:21:32;;;;;;;4.10;1.90;;;;;;;;;;4956371;28;20293;-76
2021/06/05 01:24:05;;;;;;;3.10;2.00;;;;;;;;;;4963967;28;20233;-76
2021/06/05 01:26:34;;;;;;;4.73;2.17;;;;;;;;;;4974495;28;20286;-76
2021/06/05 01:29:09;;;;;;;2.40;2.13;;;;;;;;;;4974570;28;20290;-76
2021/06/05 01:31:37;;;;;;;2.83;2.10;;;;;;;;;;4974409;28;20264;-76
2021/06/05 01:34:04;;;;;;;4.83;2.30;;;;;;;;;;4974427;28;20243;-76
2021/06/05 01:36:31;;;;;;;3.43;2.00;;;;;;;;;;4972850;28;20296;-76
2021/06/05 01:38:58;;;;;;;3.67;2.27;;;;;;;;;;4973445;28;20292;-76
2021/06/05 01:41:26;;;;;;;3.63;2.10;;;;;;;;;;4974017;28;20296;-76
2021/06/05 01:43:54;;;;;;;4.67;2.33;;;;;;;;;;4974435;28;20208;-75
2021/06/05 01:46:23;;;;;;;2.70;2.20;;;;;;;;;;4969870;28;20232;-76
2021/06/05 01:48:52;;;;;;;3.67;2.27;;;;;;;;;;4966105;28;20276;-76
2021/06/05 01:51:19;;;;;;;3.33;2.30;;;;;;;;;;4960379;28;20346;-77
2021/06/05 01:53:48;;;;;;;4.47;2.27;;;;;;;;;;4973586;28;20208;-76
2021/06/05 01:56:18;;;;;;;3.10;2.10;;;;;;;;;;4966415;28;20236;-76
2021/06/05 01:58:46;;;;;;;4.80;2.13;;;;;;;;;;4954379;29;20254;-76
2021/06/05 02:01:14;;;;;;;5.07;2.40;;;;;;;;;;4954342;29;20699;-76
2021/06/05 02:03:41;;;;;;;3.17;2.30;;;;;;;;;;4954114;28;20557;-76
2021/06/05 02:06:08;;;;;;;2.53;2.00;;;;;;;;;;4965327;28;20209;-76
2021/06/05 02:08:35;;;;;;;3.77;2.30;;;;;;;;;;4954160;29;20244;-76
2021/06/05 02:11:03;;;;;;;3.93;1.93;;;;;;;;;;4968082;28;20293;-76
2021/06/05 02:13:33;;;;;;;2.80;2.40;;;;;;;;;;4956151;28;20315;-76
2021/06/05 02:16:02;;;;;;;4.13;2.10;;;;;;;;;;4954196;28;20246;-76
2021/06/05 02:18:31;;;;;;;2.93;2.43;;;;;;;;;;4971331;28;20308;-76
2021/06/05 02:21:01;;;;;;;4.50;2.40;;;;;;;;;;4963180;28;20282;-76
2021/06/05 02:23:33;;;;;;;4.00;2.10;;;;;;;;;;4968336;28;20203;-76
2021/06/05 02:26:01;;;;;;;3.53;2.10;;;;;;;;;;4972296;28;20304;-75
2021/06/05 02:28:28;;;;;;;2.83;2.10;;;;;;;;;;4973379;28;20250;-76
2021/06/05 02:30:55;;;;;;;3.50;2.40;;;;;;;;;;4972565;28;20244;-75
2021/06/05 02:33:22;;;;;;;3.33;2.70;;;;;;;;;;4962555;28;20213;-75
2021/06/05 02:35:50;;;;;;;4.27;3.00;;;;;;;;;;4960580;28;20678;-76
2021/06/05 02:38:18;;;;;;;3.67;2.70;;;;;;;;;;4973092;28;20346;-76
2021/06/05 02:40:45;;;;;;;4.40;2.30;;;;;;;;;;4959471;28;20658;-75
2021/06/05 02:43:15;;;;;;;3.23;2.30;;;;;;;;;;4955672;28;20239;-75
2021/06/05 02:45:44;;;;;;;3.27;2.47;;;;;;;;;;4973087;28;20735;-76
2021/06/05 02:48:11;;;;;;;4.20;2.47;;;;;;;;;;4955485;28;20298;-75
2021/06/05 02:50:39;;;;;;;3.93;2.60;;;;;;;;;;4960231;28;20247;-76
2021/06/05 02:53:08;;;;;;;4.60;2.30;;;;;;;;;;4972517;28;20303;-75
2021/06/05 02:55:36;;;;;;;3.10;2.37;;;;;;;;;;4972972;28;20309;-76
2021/06/05 02:58:03;;;;;;;5.10;2.30;;;;;;;;;;4972696;28;20230;-75
2021/06/05 03:00:31;;;;;;;2.83;2.30;;;;;;;;;;4972630;28;20660;-76
2021/06/05 03:02:58;;;;;;;3.40;2.60;;;;;;;;;;4972764;28;20745;-76
2021/06/05 03:05:25;;;;;;;3.30;2.63;;;;;;;;;;4960201;28;20673;-76
2021/06/05 03:07:52;;;;;;;3.03;2.43;;;;;;;;;;4970413;28;20282;-76
2021/06/05 03:10:21;;;;;;;2.83;2.23;;;;;;;;;;4969526;28;20302;-76
2021/06/05 03:12:47;;;;;;;3.57;2.60;;;;;;;;;;4972744;28;20233;-75
2021/06/05 03:15:15;;;;;;;6.73;3.00;;;;;;;;;;4973082;28;21067;-76
2021/06/05 03:17:42;;;;;;;8.30;3.13;;;;;;;;;;4976979;28;20270;-76
2021/06/05 03:20:11;;;;;;;4.60;3.07;;;;;;;;;;4975581;28;20287;-74
2021/06/05 03:22:38;;;;;;;4.83;3.20;;;;;;;;;;4976464;28;20238;-76
2021/06/05 03:25:05;;;;;;;4.10;2.17;;;;;;;;;;4976443;28;20210;-76
2021/06/05 03:27:33;;;;;;;3.37;2.60;;;;;;;;;;4976466;28;20286;-77
2021/06/05 03:30:00;;;;;;;3.50;2.53;;;;;;;;;;4976557;28;20207;-76
2021/06/05 03:32:27;;;;;;;4.87;2.50;;;;;;;;;;4976514;28;20287;-76
2021/06/05 03:34:53;;;;;;;3.90;2.67;;;;;;;;;;4976141;28;20298;-76
2021/06/05 03:37:20;;;;;;;3.13;2.67;;;;;;;;;;4976127;28;20755;-77
2021/06/05 03:39:47;;;;;;;3.17;2.40;;;;;;;;;;4958664;28;20206;-76
2021/06/05 03:42:13;;;;;;;3.07;2.40;;;;;;;;;;4975777;28;20254;-76
2021/06/05 03:44:42;;;;;;;4.17;3.00;;;;;;;;;;4975620;28;20234;-76
2021/06/05 03:47:09;;;;;;;2.70;2.43;;;;;;;;;;4976238;28;20292;-76
2021/06/05 03:49:36;;;;;;;3.63;2.50;;;;;;;;;;4964821;28;20265;-76
2021/06/05 03:52:03;;;;;;;3.20;2.40;;;;;;;;;;4957907;28;20642;-76
2021/06/05 03:54:30;;;;;;;5.60;2.70;;;;;;;;;;4956703;29;20236;-77
2021/06/05 03:56:57;;;;;;;3.83;2.63;;;;;;;;;;4956401;29;20314;-76
2021/06/05 03:59:24;;;;;;;4.77;2.80;;;;;;;;;;4956466;29;20237;-76
2021/06/05 04:01:52;;;;;;;4.10;3.00;;;;;;;;;;4956026;29;20240;-76
2021/06/05 04:04:19;;;;;;;3.40;2.77;;;;;;;;;;4956867;29;20286;-76
2021/06/05 04:06:46;;;;;;;3.10;2.50;;;;;;;;;;4956133;29;20216;-77
2021/06/05 04:09:13;;;;;;;5.03;2.63;;;;;;;;;;4956705;29;20207;-76
2021/06/05 04:11:40;;;;;;;4.07;2.80;;;;;;;;;;4961909;28;20298;-76
2021/06/05 04:14:09;;;;;;;3.90;2.60;;;;;;;;;;4967335;28;20281;-76
2021/06/05 04:16:36;;;;;;;3.37;2.50;;;;;;;;;;4970366;28;20206;-77
2021/06/05 04:19:04;;;;;;;3.97;3.00;;;;;;;;;;4965075;28;20320;-76
2021/06/05 04:21:31;;;;;;;3.80;2.53;;;;;;;;;;4975390;28;20298;-77
2021/06/05 04:23:57;;;;;;;3.93;2.50;;;;;;;;;;4956197;29;20297;-76
2021/06/05 04:26:24;;;;;;;4.00;3.10;;;;;;;;;;4971516;28;20359;-76
2021/06/05 04:28:51;;;;;;;5.60;4.00;;;;;;;;;;4974788;28;20584;-76
2021/06/05 04:31:18;;;;;;;5.33;3.40;;;;;;;;;;4975233;28;20668;-76
2021/06/05 04:33:45;;;;;;;5.90;3.53;;;;;;;;;;4964510;28;20286;-76
2021/06/05 04:36:14;;;;;;;5.83;3.57;;;;;;;;;;4966771;28;20669;-76
2021/06/05 04:38:42;;;;;;;5.37;3.20;;;;;;;;;;4975293;28;20313;-76
2021/06/05 04:41:09;;;;;;;4.13;3.57;;;;;;;;;;4973946;28;20661;-76
2021/06/05 04:43:38;;;;;;;6.80;3.60;;;;;;;;;;4974865;28;20244;-76
2021/06/05 04:46:04;;;;;;;5.63;3.63;;;;;;;;;;4974350;28;20659;-76
2021/06/05 04:48:31;;;;;;;4.80;3.73;;;;;;;;;;4974239;28;20228;-76
2021/06/05 04:50:58;;;;;;;4.60;3.83;;;;;;;;;;4974992;28;20290;-77
2021/06/05 04:53:27;;;;;;;6.83;3.73;;;;;;;;;;4974874;28;20291;-77
2021/06/05 04:55:54;;;;;;;4.37;3.80;;;;;;;;;;4974565;28;20205;-76
2021/06/05 04:58:20;;;;;;;3.93;2.90;;;;;;;;;;4974114;28;20294;-77
2021/06/05 05:00:49;;;;;;;4.33;3.00;;;;;;;;;;4974127;28;20291;-76
2021/06/05 05:03:17;;;;;;;3.97;3.57;;;;;;;;;;4973082;28;20296;-76
2021/06/05 05:05:44;;;;;;;7.57;4.00;;;;;;;;;;4974129;28;20243;-76
2021/06/05 05:08:13;;;;;;;5.10;3.80;;;;;;;;;;4966630;28;20574;-76
2021/06/05 05:10:44;;;;;;;6.97;4.00;;;;;;;;;;4972429;28;20214;-76
2021/06/05 05:13:13;;;;;;;5.37;4.10;;;;;;;;;;4965416;28;20208;-76
2021/06/05 05:15:39;;;;;;;8.27;4.73;;;;;;;;;;4970898;28;20331;-76
2021/06/05 05:18:06;;;;;;;11.17;6.10;;;;;;;;;;4954981;29;20266;-76
2021/06/05 05:20:35;;;;;;;6.37;5.07;;;;;;;;;;4964041;28;20290;-76
2021/06/05 05:23:02;;;;;;;7.73;4.60;;;;;;;;;;4955070;29;20290;-76
2021/06/05 05:25:29;;;;;;;7.00;4.93;;;;;;;;;;4957230;28;20204;-76
2021/06/05 05:27:57;;;;;;;6.30;4.43;;;;;;;;;;4955990;28;20228;-77
2021/06/05 05:30:27;;;;;;;6.03;4.20;;;;;;;;;;4955132;29;20260;-76
2021/06/05 05:32:53;;;;;;;5.07;3.90;;;;;;;;;;4954998;29;20321;-76
2021/06/05 05:35:20;;;;;;;4.70;4.20;;;;;;;;;;4954939;29;20246;-76
2021/06/05 05:37:47;;;;;;;5.37;4.03;;;;;;;;;;4953974;28;20691;-77
2021/06/05 05:40:15;;;;;;;4.87;3.70;;;;;;;;;;4954705;29;20229;-77
2021/06/05 05:42:41;;;;;;;5.57;3.50;;;;;;;;;;4954685;29;20624;-76
2021/06/05 05:45:10;;;;;;;4.70;3.40;;;;;;;;;;4954681;29;20238;-76
2021/06/05 05:47:37;;;;;;;5.33;3.87;;;;;;;;;;4956544;28;20234;-76
2021/06/05 05:50:04;;;;;;;7.77;3.60;;;;;;;;;;4973113;28;20317;-76
2021/06/05 05:52:31;;;;;;;3.93;3.40;;;;;;;;;;4971759;28;20288;-76
2021/06/05 05:54:58;;;;;;;4.17;3.27;;;;;;;;;;4973222;28;20648;-77
2021/06/05 05:57:24;;;;;;;5.77;3.37;;;;;;;;;;4973778;28;20226;-76
2021/06/05 05:59:51;;;;;;;4.67;3.43;;;;;;;;;;4973450;28;20237;-76
2021/06/05 06:02:19;;;;;;;6.20;3.97;;;;;;;;;;4973185;28;20238;-77
2021/06/05 06:04:46;;;;;;;5.03;3.63;;;;;;;;;;4973460;28;20272;-76
2021/06/05 06:07:13;;;;;;;6.87;5.37;;;;;;;;;;4968954;28;20226;-76
2021/06/05 06:09:39;;;;;;;7.73;5.93;;;;;;;;;;4973227;28;20202;-76
2021/06/05 06:12:07;;;;;;;7.77;6.03;;;;;;;;;;4957446;28;20234;-77
2021/06/05 06:14:34;;;;;;;8.17;5.90;;;;;;;;;;4954313;28;20281;-77
2021/06/05 06:17:00;;;;;;;7.75;5.75;;;;;;;;;;4953684;28;20235;-77
2021/06/05 06:19:29;;;;;;;8.93;5.13;;;;;;;;;;4957179;28;20203;-77
2021/06/05 06:21:55;;;;;;;5.47;4.90;;;;;;;;;;4955635;28;20680;-77
2021/06/05 06:24:22;;;;;;;6.63;5.20;;;;;;;;;;4973292;28;20302;-77
2021/06/05 06:26:49;;;;;;;5.97;4.78;;;;;;;;;;4962171;28;20226;-77
2021/06/05 06:29:17;;;;;;;7.38;4.80;;;;;;;;;;4953628;28;20770;-77
2021/06/05 06:31:45;;;;;;;6.18;5.05;;;;;;;;;;4966482;28;20205;-76
2021/06/05 06:34:12;;;;;;;5.90;4.85;;;;;;;;;;4973218;28;20257;-78
2021/06/05 06:36:43;;;;;;;6.25;4.75;;;;;;;;;;4973742;28;20289;-79
2021/06/05 06:39:10;;;;;;;5.65;4.60;;;;;;;;;;4973087;28;20237;-77
2021/06/05 06:41:37;;;;;;;6.10;4.32;;;;;;;;;;4962416;28;20671;-79
2021/06/05 06:44:04;;;;;;;5.53;4.03;;;;;;;;;;4954264;29;20257;-80
2021/06/05 06:46:32;;;;;;;6.63;3.78;;;;;;;;;;4958515;28;20380;-80
2021/06/05 06:49:00;;;;;;;4.78;3.38;;;;;;;;;;4959356;28;20318;-80
2021/06/05 06:51:27;;;;;;;5.03;3.17;;;;;;;;;;4972138;28;20248;-79
2021/06/05 06:53:56;;;;;;;4.65;3.20;;;;;;;;;;4965909;28;20580;-80
2021/06/05 06:56:23;;;;;;;5.55;3.45;;;;;;;;;;4956348;28;20222;-79
2021/06/05 06:58:50;;;;;;;5.38;3.17;;;;;;;;;;4970964;28;20313;-80
2021/06/05 07:01:17;;;;;;;5.47;2.80;;;;;;;;;;4959329;28;20256;-80
2021/06/05 07:03:43;;;;;;;3.58;2.53;;;;;;;;;;4971924;28;20198;-80
2021/06/05 07:06:10;;;;;;;3.92;2.80;;;;;;;;;;4958640;28;20226;-80
2021/06/05 07:08:39;;;;;;;4.65;2.90;;;;;;;;;;4970853;28;21086;-79
2021/06/05 07:11:08;;;;;;;6.68;2.97;;;;;;;;;;4970942;28;20242;-80
2021/06/05 07:13:35;;;;;;;5.45;2.90;;;;;;;;;;4954615;28;20296;-79
2021/06/05 07:16:02;;;;;;;4.43;2.40;;;;;;;;;;4971888;28;20286;-80
2021/06/05 07:18:30;;;;;;;4.63;2.90;;;;;;;;;;4971379;28;20246;-79
2021/06/05 07:20:57;;;;;;;3.85;2.63;;;;;;;;;;4971941;28;20318;-79
2021/06/05 07:23:25;;;;;;;4.70;2.50;;;;;;;;;;4971995;28;20237;-79
2021/06/05 07:25:52;;;;;;;4.38;2.75;;;;;;;;;;4969196;28;20285;-80
2021/06/05 07:28:21;;;;;;;6.25;2.63;;;;;;;;;;4970566;28;20692;-79
2021/06/05 07:30:48;;;;;;;6.13;2.92;;;;;;;;;;4963163;28;20237;-79
2021/06/05 07:33:15;;;;;;;3.85;2.67;;;;;;;;;;4968195;28;20226;-78
2021/06/05 07:35:42;;;;;;;3.72;2.40;;;;;;;;;;4970936;28;20709;-78
2021/06/05 07:38:09;;;;;;;3.97;2.42;;;;;;;;;;4969952;28;20253;-78
2021/06/05 07:40:37;;;;;;;3.58;2.60;;;;;;;;;;4967117;28;21585;-78
2021/06/05 07:43:03;;;;;;;3.63;2.08;;;;;;;;;;4968921;28;20553;-78
2021/06/05 07:45:32;;;;;;;4.90;2.15;;;;;;;;;;4969347;28;20438;-78
2021/06/05 07:47:59;;;;;;;3.95;1.92;;;;;;;;;;4962924;28;20233;-77
2021/06/05 07:50:26;;;;;;;4.40;1.98;;;;;;;;;;4961755;28;20276;-79
2021/06/05 07:52:53;;;;;;;4.35;1.92;;;;;;;;;;4972076;28;20281;-78
2021/06/05 07:55:20;;;;;;;4.65;2.20;;;;;;;;;;4967214;28;20685;-78
2021/06/05 07:57:47;;;;;;;3.45;1.98;;;;;;;;;;4967037;28;20283;-78
2021/06/05 08:00:15;;;;;;;3.20;1.90;;;;;;;;;;4970911;28;20249;-78
2021/06/05 08:02:43;;;;;;;4.50;2.20;;;;;;;;;;4957440;28;20199;-78
2021/06/05 08:05:11;;;;;;;4.28;2.13;;;;;;;;;;4962505;28;20203;-77
2021/06/05 08:07:38;;;;;;;3.40;1.90;;;;;;;;;;4976500;28;20230;-81
2021/06/05 08:10:06;;;;;;;3.35;1.83;;;;;;;;;;4968908;28;20199;-79
2021/06/05 08:12:32;;;;;;;4.68;1.75;;;;;;;;;;4959736;28;20321;-79
2021/06/05 08:14:59;;;;;;;3.45;1.85;;;;;;;;;;4970500;28;20692;-80
2021/06/05 08:17:26;;;;;;;3.72;2.40;;;;;;;;;;4970810;28;20285;-79
2021/06/05 08:19:54;;;;;;;7.40;2.05;;;;;;;;;;4965376;28;20672;-79
2021/06/05 08:22:25;;;;;;;5.95;2.47;;;;;;;;;;4961848;28;20286;-79
2021/06/05 08:24:52;;;;;;;3.55;1.80;;;;;;;;;;4956828;28;20593;-80
2021/06/05 08:27:19;;;;;;;3.80;1.83;;;;;;;;;;4965224;28;20226;-79
2021/06/05 08:29:46;;;;;;;3.00;1.90;;;;;;;;;;4976213;28;20285;-79
2021/06/05 08:32:13;;;;;;;3.95;2.20;;;;;;;;;;4976097;28;20294;-80
2021/06/05 08:34:40;;;;;;;4.22;1.77;;;;;;;;;;4975859;28;20242;-80
2021/06/05 08:37:08;;;;;;;3.47;1.95;;;;;;;;;;4975655;28;20234;-79
2021/06/05 08:39:34;;;;;;;4.95;2.30;;;;;;;;;;4956215;29;20242;-79
2021/06/05 08:42:02;;;;;;;3.28;1.83;;;;;;;;;;4971891;28;20302;-79
2021/06/05 08:44:34;;;;;;;4.78;1.90;;;;;;;;;;4972635;28;20230;-80
2021/06/05 08:47:02;;;;;;;3.78;2.10;;;;;;;;;;4970659;28;20211;-79
2021/06/05 08:49:30;;;;;;;4.45;2.00;;;;;;;;;;4977243;28;20320;-79
2021/06/05 08:51:59;;;;;;;4.93;1.95;;;;;;;;;;4990181;28;20272;-79
2021/06/05 08:54:40;;;;;;;4.38;2.00;;;;;;;;;;4986169;28;20301;-79
2021/06/05 08:57:08;;;;;;;3.95;2.00;;;;;;;;;;4966787;28;20655;-80
2021/06/05 08:59:42;;;;;;;4.60;2.00;;;;;;;;;;4975034;28;20273;-80
2021/06/05 09:02:09;;;;;;;5.45;2.20;;;;;;;;;;4957526;28;20644;-80
2021/06/05 09:04:37;;;;;;;2.70;1.80;;;;;;;;;;4975856;28;20213;-79
2021/06/05 09:07:08;;;;;;;4.32;2.03;;;;;;;;;;4980228;28;20218;-79
2021/06/05 09:09:35;;;;;;;2.20;1.75;;;;;;;;;;4975624;28;20238;-79
2021/06/05 09:12:05;;;;;;;4.50;1.95;;;;;;;;;;4968869;28;20212;-79
2021/06/05 09:14:32;;;;;;;3.33;1.85;;;;;;;;;;4988089;28;20233;-79
2021/06/05 09:17:02;;;;;;;4.45;1.88;;;;;;;;;;4968261;28;20253;-79
2021/06/05 09:19:29;;;;;;;4.47;2.10;;;;;;;;;;4955029;28;20909;-80
2021/06/05 09:22:02;;;;;;;4.90;2.10;;;;;;;;;;4955673;28;20199;-79
2021/06/05 09:24:30;;;;;;;4.50;2.00;;;;;;;;;;4979606;28;20285;-78
2021/06/05 09:27:07;;;;;;;4.65;1.80;;;;;;;;;;4979457;28;20199;-79
2021/06/05 09:29:34;;;;;;;3.33;1.90;;;;;;;;;;4955727;28;20195;-79
2021/06/05 09:32:04;;;;;;;4.93;2.05;;;;;;;;;;4966665;28;20226;-79
2021/06/05 09:34:32;;;;;;;4.95;2.10;;;;;;;;;;4970806;28;20198;-79
2021/06/05 09:37:03;;;;;;;4.05;2.20;;;;;;;;;;4973168;28;20285;-79
2021/06/05 09:39:41;;;;;;;5.55;1.95;;;;;;;;;;4975378;28;20218;-77
2021/06/05 09:42:11;;;;;;;2.97;2.10;;;;;;;;;;4972337;28;20655;-79
2021/06/05 09:44:44;;;;;;;4.03;2.00;;;;;;;;;;4970588;28;20291;-78
2021/06/05 09:47:22;;;;;;;4.93;1.90;;;;;;;;;;4974188;28;20298;-78
2021/06/05 09:49:53;;;;;;;4.57;1.95;;;;;;;;;;4970185;28;20742;-79
2021/06/05 09:52:32;;;;;;;3.75;2.78;;;;;;;;;;4967535;28;20194;-79
2021/06/05 09:54:59;;;;;;;4.45;2.10;;;;;;;;;;4965122;28;20206;-78
2021/06/05 09:57:37;;;;;;;4.63;2.30;;;;;;;;;;4972421;28;20230;-79
2021/06/05 10:00:08;;;;;;;4.38;2.03;;;;;;;;;;4978761;28;20252;-79
2021/06/05 10:02:35;;;;;;;3.45;2.10;;;;;;;;;;4962912;28;20238;-80
2021/06/05 10:05:04;;;;;;;4.97;2.28;;;;;;;;;;4963369;28;20286;-79
2021/06/05 10:07:31;;;;;;;3.33;1.90;;;;;;;;;;4970687;28;20917;-79
2021/06/05 10:09:59;;;;;;;3.85;2.33;;;;;;;;;;4967921;28;20225;-79
2021/06/05 10:12:27;;;;;;;4.75;2.20;;;;;;;;;;4958808;28;20584;-78
2021/06/05 10:15:04;;;;;;;2.85;2.15;;;;;;;;;;4967611;28;20199;-77
2021/06/05 10:17:34;;;;;;;3.38;2.22;;;;;;;;;;4971303;28;20566;-76
2021/06/05 10:20:05;;;;;;;2.67;2.00;;;;;;;;;;4960964;28;20237;-77
2021/06/05 10:22:33;;;;;;;4.18;2.20;;;;;;;;;;4967599;28;20297;-74
2021/06/05 10:25:01;;;;;;;5.53;2.20;;;;;;;;;;4972561;28;20245;-75
2021/06/05 10:27:30;;;;;;;4.53;2.10;;;;;;;;;;4958277;28;20245;-77
2021/06/05 10:29:59;;;;;;;3.80;2.03;;;;;;;;;;4970643;28;20207;-77
2021/06/05 10:32:31;;;;;;;3.25;2.00;;;;;;;;;;4968056;28;20302;-77
2021/06/05 10:35:01;;;;;;;3.17;1.88;;;;;;;;;;4954037;29;20290;-78
2021/06/05 10:37:30;;;;;;;4.03;2.08;;;;;;;;;;4975928;28;20293;-78
2021/06/05 10:39:57;;;;;;;4.53;3.50;;;;;;;;;;4964086;28;20226;-77
2021/06/05 10:42:26;;;;;;;3.53;2.45;;;;;;;;;;4939004;28;20202;-76
2021/06/05 10:44:53;;;;;;;3.42;2.50;;;;;;;;;;4972158;28;20289;-76
2021/06/05 10:47:22;;;;;;;5.75;2.47;;;;;;;;;;4972104;28;20304;-77
2021/06/05 10:49:52;;;;;;;3.63;2.42;;;;;;;;;;4956045;28;20270;-77
2021/06/05 10:52:25;;;;;;;3.58;1.85;;;;;;;;;;4960605;28;20240;-77
2021/06/05 10:54:53;;;;;;;3.22;1.98;;;;;;;;;;4953737;28;20214;-77
2021/06/05 10:57:28;;;;;;;4.40;2.65;;;;;;;;;;4963720;28;20226;-74
2021/06/05 10:59:55;;;;;;;3.95;2.20;;;;;;;;;;4965409;28;20598;-78
2021/06/05 11:02:44;;;;;;;3.42;2.10;;;;;;;;;;4968724;28;20289;-77
2021/06/05 11:05:29;;;;;;;2.45;1.80;;;;;;;;;;4959077;28;20249;-77
2021/06/05 11:08:10;;;;;;;4.80;2.40;;;;;;;;;;4964454;28;20195;-77
2021/06/05 11:10:48;;;;;;;4.13;2.10;;;;;;;;;;4952853;28;20203;-77
2021/06/05 11:13:49;;;;;;;2.78;1.75;;;;;;;;;;4953222;28;20203;-78
2021/06/05 11:16:17;;;;;;;2.42;2.08;;;;;;;;;;4964140;28;20225;-78
2021/06/05 11:18:44;;;;;;;2.63;1.90;;;;;;;;;;4965918;28;20218;-78
2021/06/05 11:21:30;;;;;;;3.17;1.90;;;;;;;;;;4972896;28;20229;-77
2021/06/05 11:24:16;;;;;;;4.22;1.80;;;;;;;;;;4973009;28;20230;-77
2021/06/05 11:26:45;;;;;;;3.03;1.90;;;;;;;;;;4972855;28;20617;-77
2021/06/05 11:29:27;;;;;;;5.68;2.00;;;;;;;;;;4968526;28;20752;-77
2021/06/05 11:31:56;;;;;;;4.75;2.30;;;;;;;;;;4965589;28;20302;-77
2021/06/05 11:34:56;;;;;;;3.30;2.00;;;;;;;;;;4963814;28;20195;-77
2021/06/05 11:37:41;;;;;;;4.47;2.20;;;;;;;;;;4970509;28;20290;-77
2021/06/05 11:40:09;;;;;;;2.15;1.95;;;;;;;;;;4976442;28;20657;-77
2021/06/05 11:42:48;;;;;;;2.15;1.75;;;;;;;;;;4972467;28;20236;-77
2021/06/05 11:45:34;;;;;;;2.83;1.75;;;;;;;;;;4968627;28;20234;-78
2021/06/05 11:48:00;;;;;;;2.30;1.77;;;;;;;;;;4962002;28;20218;-78
2021/06/05 11:50:30;;;;;;;3.45;1.98;;;;;;;;;;4970654;28;20293;-78
2021/06/05 11:52:57;;;;;;;2.92;1.80;;;;;;;;;;4962650;28;20230;-77
2021/06/05 11:55:38;;;;;;;3.00;1.75;;;;;;;;;;4972180;28;20286;-77
2021/06/05 11:58:23;;;;;;;4.43;2.03;;;;;;;;;;4962241;28;20610;-76
2021/06/05 12:01:01;;;;;;;2.65;2.08;;;;;;;;;;4965989;28;20237;-77
2021/06/05 12:03:39;;;;;;;3.15;2.30;;;;;;;;;;4964522;28;20226;-78
2021/06/05 12:06:10;;;;;;;5.15;2.20;;;;;;;;;;4966262;28;20226;-79
2021/06/05 12:08:37;;;;;;;3.15;2.05;;;;;;;;;;4978727;28;20763;-79
2021/06/05 12:11:15;;;;;;;3.08;2.03;;;;;;;;;;4978054;28;20206;-79
2021/06/05 12:13:43;;;;;;;3.15;1.85;;;;;;;;;;4977487;28;20213;-78
2021/06/05 12:16:15;;;;;;;2.53;1.98;;;;;;;;;;4977558;28;20203;-78
2021/06/05 12:18:44;;;;;;;4.47;1.83;;;;;;;;;;4977291;28;20321;-79
2021/06/05 12:21:22;;;;;;;2.45;1.80;;;;;;;;;;4975804;28;20289;-78
2021/06/05 12:23:49;;;;;;;3.72;1.75;;;;;;;;;;4971662;28;20235;-79
2021/06/05 12:26:17;;;;;;;2.25;1.77;;;;;;;;;;4956748;29;20208;-78
2021/06/05 12:28:44;;;;;;;4.75;2.00;;;;;;;;;;4958549;28;20327;-79
2021/06/05 12:31:15;;;;;;;2.97;1.80;;;;;;;;;;4972598;28;20218;-78
2021/06/05 12:33:43;;;;;;;3.40;2.08;;;;;;;;;;4976534;28;20202;-77
2021/06/05 12:36:16;;;;;;;3.90;2.00;;;;;;;;;;4974307;28;20239;-78
2021/06/05 12:38:46;;;;;;;4.45;2.00;;;;;;;;;;4966395;28;20302;-78
2021/06/05 12:41:18;;;;;;;3.50;1.70;;;;;;;;;;4963044;28;20230;-79
2021/06/05 12:43:45;;;;;;;2.80;1.63;;;;;;;;;;4973769;28;20323;-79
2021/06/05 12:46:18;;;;;;;3.00;2.47;;;;;;;;;;4975235;28;20304;-78
2021/06/05 12:48:45;;;;;;;4.40;2.10;;;;;;;;;;4964893;28;20266;-79
2021/06/05 12:51:16;;;;;;;51.40;15.38;;;;;;;;;;4967751;28;20290;-79
2021/06/05 12:53:43;;;;;;;3.85;2.45;;;;;;;;;;4968838;28;20194;-79
2021/06/05 12:56:24;;;;;;;5.57;2.80;;;;;;;;;;4975375;28;20226;-79
2021/06/05 12:58:56;;;;;;;5.95;2.42;;;;;;;;;;4956670;28;20255;-78
2021/06/05 13:01:29;;;;;;;4.47;2.05;;;;;;;;;;4956342;28;20230;-79
2021/06/05 13:03:56;;;;;;;3.42;2.00;;;;;;;;;;4955770;29;20583;-79
2021/06/05 13:06:24;;;;;;;25.35;11.82;;;;;;;;;;4972741;28;20703;-79
2021/06/05 13:08:52;;;;;;;3.97;1.85;;;;;;;;;;4974911;28;20210;-79
2021/06/05 13:11:39;;;;;;;7.93;5.05;;;;;;;;;;4974479;28;20229;-79
2021/06/05 13:14:08;;;;;;;33.38;10.00;;;;;;;;;;4964538;28;20909;-79
2021/06/05 13:16:37;;;;;;;3.30;2.20;;;;;;;;;;4956106;28;20234;-79
2021/06/05 13:19:14;;;;;;;2.47;2.10;;;;;;;;;;4966845;28;20254;-78
2021/06/05 13:21:41;;;;;;;5.43;1.90;;;;;;;;;;4960188;28;20637;-79
2021/06/05 13:24:12;;;;;;;3.33;2.05;;;;;;;;;;4975502;28;20289;-79
2021/06/05 13:26:39;;;;;;;2.05;1.83;;;;;;;;;;4973471;28;20238;-78
2021/06/05 13:29:33;;;;;;;5.63;2.20;;;;;;;;;;4965133;28;20752;-79
2021/06/05 13:32:02;;;;;;;4.13;1.92;;;;;;;;;;4925008;29;20203;-78
2021/06/05 13:34:30;;;;;;;4.18;2.28;;;;;;;;;;4933497;29;20239;-78
2021/06/05 13:37:16;;;;;;;3.38;2.10;;;;;;;;;;4933540;29;20601;-78
2021/06/05 13:39:43;;;;;;;2.47;2.00;;;;;;;;;;4931804;29;20302;-78
2021/06/05 13:42:09;;;;;;;4.43;1.95;;;;;;;;;;4932663;29;20248;-78
2021/06/05 13:44:38;;;;;;;2.33;1.75;;;;;;;;;;4925887;29;20298;-78
2021/06/05 13:47:07;;;;;;;2.90;2.13;;;;;;;;;;4945907;29;20254;-78
2021/06/05 13:49:33;;;;;;;3.38;1.85;;;;;;;;;;4914920;29;20698;-79
2021/06/05 13:52:03;;;;;;;3.45;2.20;;;;;;;;;;4930778;29;20254;-78
2021/06/05 13:54:29;;;;;;;3.05;2.10;;;;;;;;;;4925740;29;20687;-78
2021/06/05 13:56:56;;;;;;;2.65;1.90;;;;;;;;;;4924854;29;20253;-78
2021/06/05 13:59:23;;;;;;;3.95;2.00;;;;;;;;;;4924914;29;20315;-78
2021/06/05 14:01:49;;;;;;;5.88;2.05;;;;;;;;;;4926194;29;20591;-78
2021/06/05 14:04:17;;;;;;;2.50;2.00;;;;;;;;;;4928814;29;20408;-78
2021/06/05 14:06:44;;;;;;;3.58;2.03;;;;;;;;;;4928645;28;20287;-78
2021/06/05 14:09:12;;;;;;;2.58;1.92;;;;;;;;;;4963559;28;20286;-78
2021/06/05 14:11:39;;;;;;;4.03;2.42;;;;;;;;;;4971392;28;20297;-78
2021/06/05 14:14:08;;;;;;;3.22;2.03;;;;;;;;;;4972848;28;20259;-78
2021/06/05 14:16:34;;;;;;;4.65;2.28;;;;;;;;;;4967581;28;20198;-79
2021/06/05 14:19:01;;;;;;;4.22;2.00;;;;;;;;;;4955892;28;20724;-78
2021/06/05 14:21:29;;;;;;;3.92;1.90;;;;;;;;;;4957585;28;20238;-79
2021/06/05 14:23:56;;;;;;;2.35;1.88;;;;;;;;;;4967100;28;20293;-78
2021/06/05 14:26:23;;;;;;;3.47;2.03;;;;;;;;;;4956333;28;20294;-78
2021/06/05 14:28:50;;;;;;;3.28;1.92;;;;;;;;;;4958925;28;20695;-78
2021/06/05 14:31:18;;;;;;;3.15;1.85;;;;;;;;;;4966155;28;20609;-79
2021/06/05 14:33:44;;;;;;;4.68;2.08;;;;;;;;;;4958553;28;20235;-79
2021/06/05 14:36:12;;;;;;;3.70;2.00;;;;;;;;;;4953873;28;20290;-78
2021/06/05 14:38:41;;;;;;;5.47;1.95;;;;;;;;;;4955284;28;20654;-78
2021/06/05 14:41:09;;;;;;;5.40;2.50;;;;;;;;;;4966488;28;20203;-78
2021/06/05 14:43:38;;;;;;;3.47;1.98;;;;;;;;;;4954817;28;20199;-79
2021/06/05 14:46:05;;;;;;;3.63;1.83;;;;;;;;;;4968574;28;20218;-79
2021/06/05 14:48:32;;;;;;;3.40;2.10;;;;;;;;;;4960293;28;20329;-78
2021/06/05 14:50:59;;;;;;;3.40;2.00;;;;;;;;;;4959401;28;20294;-79
2021/06/05 14:53:27;;;;;;;3.55;1.95;;;;;;;;;;4959903;28;20234;-79